Chatuge Observed Data For Previous 48 Hours

Caption
Day and Hour Reservoir Elevation (behind dam)* Tailwater Elevation (below dam)* Average Hourly Discharge*
9/21/2017 2 AM EDT 1,921.31 1,802.99 0
9/21/2017 3 AM EDT 1,921.31 1,802.99 0
9/21/2017 4 AM EDT 1,921.31 1,802.99 0
9/21/2017 5 AM EDT 1,921.31 1,802.99 0
9/21/2017 6 AM EDT 1,921.31 1,802.99 0
9/21/2017 7 AM EDT 1,921.31 1,804.39 27
9/21/2017 8 AM EDT 1,921.31 1,804.51 763
9/21/2017 9 AM EDT 1,921.31 1,803.91 0
9/21/2017 10 AM EDT 1,921.31 1,803.56 0
9/21/2017 11 AM EDT 1,921.31 1,803.23 0
9/21/2017 12 PM EDT 1,921.31 1,802.99 0
9/21/2017 1 PM EDT 1,921.31 1,802.98 0
9/21/2017 2 PM EDT 1,921.31 1,802.98 0
9/21/2017 3 PM EDT 1,921.32 1,804.09 18
9/21/2017 4 PM EDT 1,921.32 1,806.77 1,400
9/21/2017 5 PM EDT 1,921.32 1,806.89 1,387
9/21/2017 6 PM EDT 1,921.32 1,806.90 1,379
9/21/2017 7 PM EDT 1,921.31 1,806.88 1,378
9/21/2017 8 PM EDT 1,921.30 1,806.84 1,381
9/21/2017 9 PM EDT 1,921.29 1,806.90 1,376
9/21/2017 10 PM EDT 1,921.28 1,804.23 36
9/21/2017 11 PM EDT 1,921.27 1,803.81 0
9/22/2017 12 AM EDT 1,921.27 1,803.48 0
9/22/2017 1 AM EDT 1,921.27 1,803.15 0
9/22/2017 2 AM EDT 1,921.27 1,802.99 0
9/22/2017 3 AM EDT 1,921.27 1,802.99 0
9/22/2017 4 AM EDT 1,921.27 1,802.99 0
9/22/2017 5 AM EDT 1,921.27 1,802.99 0
9/22/2017 6 AM EDT 1,921.27 1,802.99 0
9/22/2017 7 AM EDT 1,921.27 1,802.99 0
9/22/2017 8 AM EDT 1,921.28 1,804.62 40
9/22/2017 9 AM EDT 1,921.28 1,804.52 777
9/22/2017 10 AM EDT 1,921.28 1,803.92 0
9/22/2017 11 AM EDT 1,921.28 1,803.59 0
9/22/2017 12 PM EDT 1,921.28 1,803.26 0
9/22/2017 1 PM EDT 1,921.28 1,804.13 20
9/22/2017 2 PM EDT 1,921.28 1,806.83 1,405
9/22/2017 3 PM EDT 1,921.28 1,806.92 1,391
9/22/2017 4 PM EDT 1,921.27 1,806.91 1,390
9/22/2017 5 PM EDT 1,921.25 1,806.90 1,389
9/22/2017 6 PM EDT 1,921.23 1,806.87 1,385
9/22/2017 7 PM EDT 1,921.22 1,806.90 1,378
9/22/2017 8 PM EDT 1,921.21 1,804.23 37
9/22/2017 9 PM EDT 1,921.20 1,803.81 0
9/22/2017 10 PM EDT 1,921.20 1,803.47 0
9/22/2017 11 PM EDT 1,921.20 1,803.15 0
9/23/2017 12 AM EDT 1,921.20 1,802.99 0
9/23/2017 1 AM EDT 1,921.20 1,802.99 0
9/23/2017 2 AM EDT 1,921.20 1,802.98 0
9/23/2017 3 AM EDT 1,921.20 1,802.99 0

Elevations are in feet above sea level. Discharges are in cubic feet per second and are reported at the end of the hour.